sensor_id;sensor_type;location;lat;lon;timestamp;temperature;humidity
11838;DHT22;5978;51.020;6.764;2023-03-01T00:01:36;1.10;99.90
11838;DHT22;5978;51.020;6.764;2023-03-01T00:04:03;1.10;99.90
11838;DHT22;5978;51.020;6.764;2023-03-01T00:06:28;1.00;99.90
11838;DHT22;5978;51.020;6.764;2023-03-01T00:08:54;1.00;99.90
11838;DHT22;5978;51.020;6.764;2023-03-01T00:11:25;1.00;99.90
11838;DHT22;5978;51.020;6.764;2023-03-01T00:13:53;1.00;99.90
11838;DHT22;5978;51.020;6.764;2023-03-01T00:16:27;1.00;99.90
11838;DHT22;5978;51.020;6.764;2023-03-01T00:18:57;1.00;99.90
11838;DHT22;5978;51.020;6.764;2023-03-01T00:21:24;0.90;99.90
11838;DHT22;5978;51.020;6.764;2023-03-01T00:23:50;0.90;99.90
11838;DHT22;5978;51.020;6.764;2023-03-01T00:26:17;0.80;99.90
11838;DHT22;5978;51.020;6.764;2023-03-01T00:28:43;0.90;99.90
11838;DHT22;5978;51.020;6.764;2023-03-01T00:31:18;0.80;99.90
11838;DHT22;5978;51.020;6.764;2023-03-01T00:33:44;0.80;99.90
11838;DHT22;5978;51.020;6.764;2023-03-01T00:36:11;0.80;99.90
11838;DHT22;5978;51.020;6.764;2023-03-01T00:38:40;0.80;99.90
11838;DHT22;5978;51.020;6.764;2023-03-01T00:41:08;0.70;99.90
11838;DHT22;5978;51.020;6.764;2023-03-01T00:43:34;0.70;99.90
11838;DHT22;5978;51.020;6.764;2023-03-01T00:46:07;0.70;99.90
11838;DHT22;5978;51.020;6.764;2023-03-01T00:48:34;0.70;99.90
11838;DHT22;5978;51.020;6.764;2023-03-01T00:51:06;0.60;99.90
11838;DHT22;5978;51.020;6.764;2023-03-01T00:53:33;0.60;99.90
11838;DHT22;5978;51.020;6.764;2023-03-01T00:55:59;0.60;99.90
11838;DHT22;5978;51.020;6.764;2023-03-01T00:58:24;0.60;99.90
11838;DHT22;5978;51.020;6.764;2023-03-01T01:00:50;0.60;99.90
11838;DHT22;5978;51.020;6.764;2023-03-01T01:03:18;0.50;99.90
11838;DHT22;5978;51.020;6.764;2023-03-01T01:05:44;0.50;99.90
11838;DHT22;5978;51.020;6.764;2023-03-01T01:08:10;0.40;99.90
11838;DHT22;5978;51.020;6.764;2023-03-01T01:10:36;0.40;99.90
11838;DHT22;5978;51.020;6.764;2023-03-01T01:13:02;0.40;99.90
11838;DHT22;5978;51.020;6.764;2023-03-01T01:15:28;0.40;99.90
11838;DHT22;5978;51.020;6.764;2023-03-01T01:17:53;0.40;99.90
11838;DHT22;5978;51.020;6.764;2023-03-01T01:20:20;0.40;99.90
11838;DHT22;5978;51.020;6.764;2023-03-01T01:22:46;0.40;99.90
11838;DHT22;5978;51.020;6.764;2023-03-01T01:25:12;0.40;99.90
11838;DHT22;5978;51.020;6.764;2023-03-01T01:27:38;0.30;99.90
11838;DHT22;5978;51.020;6.764;2023-03-01T01:30:04;0.30;99.90
11838;DHT22;5978;51.020;6.764;2023-03-01T01:32:30;0.30;99.90
11838;DHT22;5978;51.020;6.764;2023-03-01T01:34:55;0.20;99.90
11838;DHT22;5978;51.020;6.764;2023-03-01T01:37:21;0.20;99.90
11838;DHT22;5978;51.020;6.764;2023-03-01T01:39:47;0.20;99.90
11838;DHT22;5978;51.020;6.764;2023-03-01T01:42:15;0.20;99.90
11838;DHT22;5978;51.020;6.764;2023-03-01T01:44:45;0.20;99.90
11838;DHT22;5978;51.020;6.764;2023-03-01T01:47:20;0.20;99.90
11838;DHT22;5978;51.020;6.764;2023-03-01T01:49:50;0.10;99.90
11838;DHT22;5978;51.020;6.764;2023-03-01T01:52:22;0.10;99.90
11838;DHT22;5978;51.020;6.764;2023-03-01T01:55:00;0.00;99.90
11838;DHT22;5978;51.020;6.764;2023-03-01T01:57:49;0.00;99.90
11838;DHT22;5978;51.020;6.764;2023-03-01T02:00:19;-0.10;99.90
11838;DHT22;5978;51.020;6.764;2023-03-01T02:02:48;-0.10;99.90
11838;DHT22;5978;51.020;6.764;2023-03-01T02:07:53;0.00;99.90
11838;DHT22;5978;51.020;6.764;2023-03-01T02:10:20;-0.10;99.90
11838;DHT22;5978;51.020;6.764;2023-03-01T02:12:46;-0.10;99.90
11838;DHT22;5978;51.020;6.764;2023-03-01T02:15:12;-0.20;99.90
11838;DHT22;5978;51.020;6.764;2023-03-01T02:17:38;-0.20;99.90
11838;DHT22;5978;51.020;6.764;2023-03-01T02:22:43;-0.30;99.90
11838;DHT22;5978;51.020;6.764;2023-03-01T02:27:53;-0.30;99.90
11838;DHT22;5978;51.020;6.764;2023-03-01T02:30:24;-0.30;99.90
11838;DHT22;5978;51.020;6.764;2023-03-01T02:32:51;-0.30;99.90
11838;DHT22;5978;51.020;6.764;2023-03-01T02:35:19;-0.30;99.90
11838;DHT22;5978;51.020;6.764;2023-03-01T02:37:45;-0.30;99.90
11838;DHT22;5978;51.020;6.764;2023-03-01T02:40:13;-0.30;99.90
11838;DHT22;5978;51.020;6.764;2023-03-01T02:42:57;-0.40;99.90
11838;DHT22;5978;51.020;6.764;2023-03-01T02:45:24;-0.40;99.90
11838;DHT22;5978;51.020;6.764;2023-03-01T02:47:53;-0.50;99.90
11838;DHT22;5978;51.020;6.764;2023-03-01T02:53:13;-0.40;99.90
11838;DHT22;5978;51.020;6.764;2023-03-01T02:55:40;-0.40;99.90
11838;DHT22;5978;51.020;6.764;2023-03-01T02:58:06;-0.50;99.90
11838;DHT22;5978;51.020;6.764;2023-03-01T03:00:41;-0.50;99.90
11838;DHT22;5978;51.020;6.764;2023-03-01T03:03:21;-0.50;99.90
11838;DHT22;5978;51.020;6.764;2023-03-01T03:05:47;-0.50;99.90
11838;DHT22;5978;51.020;6.764;2023-03-01T03:08:14;-0.40;99.90
11838;DHT22;5978;51.020;6.764;2023-03-01T03:10:42;-0.50;99.90
11838;DHT22;5978;51.020;6.764;2023-03-01T03:13:13;-0.50;99.90
11838;DHT22;5978;51.020;6.764;2023-03-01T03:15:40;-0.50;99.90
11838;DHT22;5978;51.020;6.764;2023-03-01T03:18:10;-0.50;99.90
11838;DHT22;5978;51.020;6.764;2023-03-01T03:20:37;-0.50;99.90
11838;DHT22;5978;51.020;6.764;2023-03-01T03:23:04;-0.60;99.90
11838;DHT22;5978;51.020;6.764;2023-03-01T03:25:30;-0.50;99.90
11838;DHT22;5978;51.020;6.764;2023-03-01T03:27:57;-0.60;99.90
11838;DHT22;5978;51.020;6.764;2023-03-01T03:30:31;-0.60;99.90
11838;DHT22;5978;51.020;6.764;2023-03-01T03:32:58;-0.70;99.90
11838;DHT22;5978;51.020;6.764;2023-03-01T03:35:29;-0.70;99.90
11838;DHT22;5978;51.020;6.764;2023-03-01T03:38:00;-0.70;99.90
11838;DHT22;5978;51.020;6.764;2023-03-01T03:40:39;-0.70;99.90
11838;DHT22;5978;51.020;6.764;2023-03-01T03:43:10;-0.70;99.90
11838;DHT22;5978;51.020;6.764;2023-03-01T03:45:36;-0.60;99.90
11838;DHT22;5978;51.020;6.764;2023-03-01T03:48:04;-0.60;99.90
11838;DHT22;5978;51.020;6.764;2023-03-01T03:50:30;-0.60;99.90
11838;DHT22;5978;51.020;6.764;2023-03-01T03:52:56;-0.60;99.90
11838;DHT22;5978;51.020;6.764;2023-03-01T03:55:22;-0.60;99.90
11838;DHT22;5978;51.020;6.764;2023-03-01T03:57:48;-0.60;99.90
11838;DHT22;5978;51.020;6.764;2023-03-01T04:00:21;-0.60;99.90
11838;DHT22;5978;51.020;6.764;2023-03-01T04:02:47;-0.60;99.90
11838;DHT22;5978;51.020;6.764;2023-03-01T04:05:16;-0.60;99.90
11838;DHT22;5978;51.020;6.764;2023-03-01T04:07:43;-0.60;99.90
11838;DHT22;5978;51.020;6.764;2023-03-01T04:10:16;-0.70;99.90
11838;DHT22;5978;51.020;6.764;2023-03-01T04:12:42;-0.70;99.90
11838;DHT22;5978;51.020;6.764;2023-03-01T04:15:11;-0.70;99.90
11838;DHT22;5978;51.020;6.764;2023-03-01T04:17:45;-0.70;99.90
11838;DHT22;5978;51.020;6.764;2023-03-01T04:20:17;-0.70;99.90
11838;DHT22;5978;51.020;6.764;2023-03-01T04:22:46;-0.80;99.90
11838;DHT22;5978;51.020;6.764;2023-03-01T04:25:13;-0.80;99.90
11838;DHT22;5978;51.020;6.764;2023-03-01T04:27:40;-0.80;99.90
11838;DHT22;5978;51.020;6.764;2023-03-01T04:30:07;-0.80;99.90
11838;DHT22;5978;51.020;6.764;2023-03-01T04:32:33;-0.80;99.90
11838;DHT22;5978;51.020;6.764;2023-03-01T04:34:59;-0.90;99.90
11838;DHT22;5978;51.020;6.764;2023-03-01T04:37:25;-0.80;99.90
11838;DHT22;5978;51.020;6.764;2023-03-01T04:39:51;-0.80;99.90
11838;DHT22;5978;51.020;6.764;2023-03-01T04:42:17;-0.80;99.90
11838;DHT22;5978;51.020;6.764;2023-03-01T04:44:44;-0.80;99.90
11838;DHT22;5978;51.020;6.764;2023-03-01T04:47:10;-0.80;99.90
11838;DHT22;5978;51.020;6.764;2023-03-01T04:49:35;-0.80;99.90
11838;DHT22;5978;51.020;6.764;2023-03-01T04:52:01;-0.80;99.90
11838;DHT22;5978;51.020;6.764;2023-03-01T04:54:31;-0.80;99.90
11838;DHT22;5978;51.020;6.764;2023-03-01T04:56:58;-0.80;99.90
11838;DHT22;5978;51.020;6.764;2023-03-01T04:59:24;-0.90;99.90
11838;DHT22;5978;51.020;6.764;2023-03-01T05:01:50;-0.90;99.90
11838;DHT22;5978;51.020;6.764;2023-03-01T05:04:16;-0.90;99.90
11838;DHT22;5978;51.020;6.764;2023-03-01T05:06:42;-1.00;99.90
11838;DHT22;5978;51.020;6.764;2023-03-01T05:09:08;-1.00;99.90
11838;DHT22;5978;51.020;6.764;2023-03-01T05:11:34;-1.00;99.90
11838;DHT22;5978;51.020;6.764;2023-03-01T05:14:05;-1.00;99.90
11838;DHT22;5978;51.020;6.764;2023-03-01T05:16:32;-1.00;99.90
11838;DHT22;5978;51.020;6.764;2023-03-01T05:18:59;-0.90;99.90
11838;DHT22;5978;51.020;6.764;2023-03-01T05:21:25;-1.00;99.90
11838;DHT22;5978;51.020;6.764;2023-03-01T05:23:51;-1.00;99.90
11838;DHT22;5978;51.020;6.764;2023-03-01T05:26:18;-1.00;99.90
11838;DHT22;5978;51.020;6.764;2023-03-01T05:28:44;-1.00;99.90
11838;DHT22;5978;51.020;6.764;2023-03-01T05:31:10;-1.00;99.90
11838;DHT22;5978;51.020;6.764;2023-03-01T05:33:37;-1.00;99.90
11838;DHT22;5978;51.020;6.764;2023-03-01T05:36:03;-1.00;99.90
11838;DHT22;5978;51.020;6.764;2023-03-01T05:38:29;-1.00;99.90
11838;DHT22;5978;51.020;6.764;2023-03-01T05:40:54;-1.00;99.90
11838;DHT22;5978;51.020;6.764;2023-03-01T05:43:20;-1.00;99.90
11838;DHT22;5978;51.020;6.764;2023-03-01T05:45:46;-1.00;99.90
11838;DHT22;5978;51.020;6.764;2023-03-01T05:48:13;-1.00;99.90
11838;DHT22;5978;51.020;6.764;2023-03-01T05:50:43;-1.00;99.90
11838;DHT22;5978;51.020;6.764;2023-03-01T05:53:15;-1.00;99.90
11838;DHT22;5978;51.020;6.764;2023-03-01T05:55:41;-1.10;99.90
11838;DHT22;5978;51.020;6.764;2023-03-01T05:58:12;-1.10;99.90
11838;DHT22;5978;51.020;6.764;2023-03-01T06:00:40;-1.10;99.90
11838;DHT22;5978;51.020;6.764;2023-03-01T06:03:06;-1.20;99.90
11838;DHT22;5978;51.020;6.764;2023-03-01T06:05:32;-1.20;99.90
11838;DHT22;5978;51.020;6.764;2023-03-01T06:08:00;-1.20;99.90
11838;DHT22;5978;51.020;6.764;2023-03-01T06:10:26;-1.20;99.90
11838;DHT22;5978;51.020;6.764;2023-03-01T06:12:53;-1.20;99.90
11838;DHT22;5978;51.020;6.764;2023-03-01T06:15:19;-1.20;99.90
11838;DHT22;5978;51.020;6.764;2023-03-01T06:17:46;-1.20;99.90
11838;DHT22;5978;51.020;6.764;2023-03-01T06:20:17;-1.20;99.90
11838;DHT22;5978;51.020;6.764;2023-03-01T06:22:44;-1.20;99.90
11838;DHT22;5978;51.020;6.764;2023-03-01T06:25:11;-1.20;99.90
11838;DHT22;5978;51.020;6.764;2023-03-01T06:27:38;-1.20;99.90
11838;DHT22;5978;51.020;6.764;2023-03-01T06:30:04;-1.30;99.90
11838;DHT22;5978;51.020;6.764;2023-03-01T06:32:30;-1.30;99.90
11838;DHT22;5978;51.020;6.764;2023-03-01T06:34:57;-1.30;99.90
11838;DHT22;5978;51.020;6.764;2023-03-01T06:37:24;-1.30;99.90
11838;DHT22;5978;51.020;6.764;2023-03-01T06:39:50;-1.30;99.90
11838;DHT22;5978;51.020;6.764;2023-03-01T06:42:16;-1.30;99.90
11838;DHT22;5978;51.020;6.764;2023-03-01T06:44:43;-1.40;99.90
11838;DHT22;5978;51.020;6.764;2023-03-01T06:47:09;-1.40;99.90
11838;DHT22;5978;51.020;6.764;2023-03-01T06:49:35;-1.40;99.90
11838;DHT22;5978;51.020;6.764;2023-03-01T06:52:00;-1.40;99.90
11838;DHT22;5978;51.020;6.764;2023-03-01T06:54:26;-1.40;99.90
11838;DHT22;5978;51.020;6.764;2023-03-01T06:56:52;-1.40;99.90
11838;DHT22;5978;51.020;6.764;2023-03-01T06:59:18;-1.30;99.90
11838;DHT22;5978;51.020;6.764;2023-03-01T07:01:44;-1.30;99.90
11838;DHT22;5978;51.020;6.764;2023-03-01T07:04:10;-1.20;99.90
11838;DHT22;5978;51.020;6.764;2023-03-01T07:06:36;-1.20;99.90
11838;DHT22;5978;51.020;6.764;2023-03-01T07:09:02;-1.10;99.90
11838;DHT22;5978;51.020;6.764;2023-03-01T07:11:28;-1.10;99.90
11838;DHT22;5978;51.020;6.764;2023-03-01T07:13:53;-1.00;99.90
11838;DHT22;5978;51.020;6.764;2023-03-01T07:16:20;-0.90;99.90
11838;DHT22;5978;51.020;6.764;2023-03-01T07:18:46;-0.80;99.90
11838;DHT22;5978;51.020;6.764;2023-03-01T07:21:13;-0.70;99.90
11838;DHT22;5978;51.020;6.764;2023-03-01T07:23:40;-0.50;99.90
11838;DHT22;5978;51.020;6.764;2023-03-01T07:26:06;-0.50;99.90
11838;DHT22;5978;51.020;6.764;2023-03-01T07:28:32;-0.40;99.90
11838;DHT22;5978;51.020;6.764;2023-03-01T07:31:07;-0.30;99.90
11838;DHT22;5978;51.020;6.764;2023-03-01T07:33:33;-0.30;99.90
11838;DHT22;5978;51.020;6.764;2023-03-01T07:36:01;-0.10;99.90
11838;DHT22;5978;51.020;6.764;2023-03-01T07:38:27;0.00;99.90
11838;DHT22;5978;51.020;6.764;2023-03-01T07:40:58;0.20;99.90
11838;DHT22;5978;51.020;6.764;2023-03-01T07:43:24;0.30;99.90
11838;DHT22;5978;51.020;6.764;2023-03-01T07:45:50;0.50;99.90
11838;DHT22;5978;51.020;6.764;2023-03-01T07:48:15;0.60;99.90
11838;DHT22;5978;51.020;6.764;2023-03-01T07:50:41;0.80;99.90
11838;DHT22;5978;51.020;6.764;2023-03-01T07:53:07;1.00;99.90
11838;DHT22;5978;51.020;6.764;2023-03-01T07:55:33;1.10;99.90
11838;DHT22;5978;51.020;6.764;2023-03-01T07:57:59;1.30;99.90
11838;DHT22;5978;51.020;6.764;2023-03-01T08:00:25;1.30;99.90
11838;DHT22;5978;51.020;6.764;2023-03-01T08:02:51;1.40;99.90
11838;DHT22;5978;51.020;6.764;2023-03-01T08:05:17;1.50;99.90
11838;DHT22;5978;51.020;6.764;2023-03-01T08:07:43;1.60;99.90
11838;DHT22;5978;51.020;6.764;2023-03-01T08:10:09;1.70;99.90
11838;DHT22;5978;51.020;6.764;2023-03-01T08:12:35;1.80;99.90
11838;DHT22;5978;51.020;6.764;2023-03-01T08:15:01;1.80;99.90
11838;DHT22;5978;51.020;6.764;2023-03-01T08:17:27;1.80;99.90
11838;DHT22;5978;51.020;6.764;2023-03-01T08:19:52;1.90;99.90
11838;DHT22;5978;51.020;6.764;2023-03-01T08:22:18;2.10;99.90
11838;DHT22;5978;51.020;6.764;2023-03-01T08:24:44;2.30;99.90
11838;DHT22;5978;51.020;6.764;2023-03-01T08:27:09;2.40;99.90
11838;DHT22;5978;51.020;6.764;2023-03-01T08:29:37;2.50;99.90
11838;DHT22;5978;51.020;6.764;2023-03-01T08:32:03;2.70;99.90
11838;DHT22;5978;51.020;6.764;2023-03-01T08:34:29;2.80;99.90
11838;DHT22;5978;51.020;6.764;2023-03-01T08:36:56;3.00;99.90
11838;DHT22;5978;51.020;6.764;2023-03-01T08:39:22;3.10;99.90
11838;DHT22;5978;51.020;6.764;2023-03-01T08:41:48;3.20;99.90
11838;DHT22;5978;51.020;6.764;2023-03-01T08:44:15;3.30;99.90
11838;DHT22;5978;51.020;6.764;2023-03-01T08:46:45;3.40;99.90
11838;DHT22;5978;51.020;6.764;2023-03-01T08:49:17;3.60;99.90
11838;DHT22;5978;51.020;6.764;2023-03-01T08:51:44;3.70;99.90
11838;DHT22;5978;51.020;6.764;2023-03-01T08:54:12;3.80;99.90
11838;DHT22;5978;51.020;6.764;2023-03-01T08:56:39;3.90;99.90
11838;DHT22;5978;51.020;6.764;2023-03-01T08:59:04;4.00;99.90
11838;DHT22;5978;51.020;6.764;2023-03-01T09:01:30;4.00;99.90
11838;DHT22;5978;51.020;6.764;2023-03-01T09:03:56;4.20;99.90
11838;DHT22;5978;51.020;6.764;2023-03-01T09:06:21;4.50;99.90
11838;DHT22;5978;51.020;6.764;2023-03-01T09:08:49;4.70;99.90
11838;DHT22;5978;51.020;6.764;2023-03-01T09:11:17;4.30;99.90
11838;DHT22;5978;51.020;6.764;2023-03-01T09:13:44;4.50;99.90
11838;DHT22;5978;51.020;6.764;2023-03-01T09:16:12;4.70;99.90
11838;DHT22;5978;51.020;6.764;2023-03-01T09:18:38;4.90;99.90
11838;DHT22;5978;51.020;6.764;2023-03-01T09:21:13;4.90;99.90
11838;DHT22;5978;51.020;6.764;2023-03-01T09:23:41;5.30;99.90
11838;DHT22;5978;51.020;6.764;2023-03-01T09:26:12;5.20;99.90
11838;DHT22;5978;51.020;6.764;2023-03-01T09:28:40;5.50;99.90
11838;DHT22;5978;51.020;6.764;2023-03-01T09:31:12;5.80;99.90
11838;DHT22;5978;51.020;6.764;2023-03-01T09:33:39;5.80;99.90
11838;DHT22;5978;51.020;6.764;2023-03-01T09:36:14;5.90;99.90
11838;DHT22;5978;51.020;6.764;2023-03-01T09:38:40;5.90;99.90
11838;DHT22;5978;51.020;6.764;2023-03-01T09:44:01;5.50;99.90
11838;DHT22;5978;51.020;6.764;2023-03-01T09:46:34;5.20;99.90
11838;DHT22;5978;51.020;6.764;2023-03-01T09:49:05;5.10;99.90
11838;DHT22;5978;51.020;6.764;2023-03-01T09:51:34;5.60;99.90
11838;DHT22;5978;51.020;6.764;2023-03-01T09:54:02;5.50;99.90
11838;DHT22;5978;51.020;6.764;2023-03-01T09:56:39;5.80;99.90
11838;DHT22;5978;51.020;6.764;2023-03-01T09:59:23;5.90;99.90
11838;DHT22;5978;51.020;6.764;2023-03-01T10:02:10;5.90;99.90
11838;DHT22;5978;51.020;6.764;2023-03-01T10:04:46;5.90;99.90
11838;DHT22;5978;51.020;6.764;2023-03-01T10:10:28;6.10;99.60
11838;DHT22;5978;51.020;6.764;2023-03-01T10:12:56;6.30;99.00
11838;DHT22;5978;51.020;6.764;2023-03-01T10:15:40;6.40;96.80
11838;DHT22;5978;51.020;6.764;2023-03-01T10:18:22;6.60;97.80
11838;DHT22;5978;51.020;6.764;2023-03-01T10:20:56;6.50;96.00
11838;DHT22;5978;51.020;6.764;2023-03-01T10:23:27;6.40;95.60
11838;DHT22;5978;51.020;6.764;2023-03-01T10:26:06;6.60;94.40
11838;DHT22;5978;51.020;6.764;2023-03-01T10:28:57;6.70;94.70
11838;DHT22;5978;51.020;6.764;2023-03-01T10:31:37;7.10;93.30
11838;DHT22;5978;51.020;6.764;2023-03-01T10:36:50;7.90;90.10
11838;DHT22;5978;51.020;6.764;2023-03-01T10:39:22;8.30;88.50
11838;DHT22;5978;51.020;6.764;2023-03-01T10:42:00;8.30;85.20
11838;DHT22;5978;51.020;6.764;2023-03-01T10:44:48;8.40;80.80
11838;DHT22;5978;51.020;6.764;2023-03-01T10:47:27;8.70;82.80
11838;DHT22;5978;51.020;6.764;2023-03-01T10:50:01;9.10;81.80
11838;DHT22;5978;51.020;6.764;2023-03-01T10:52:33;9.00;76.60
11838;DHT22;5978;51.020;6.764;2023-03-01T10:55:22;9.90;77.10
11838;DHT22;5978;51.020;6.764;2023-03-01T10:57:47;9.60;72.40
11838;DHT22;5978;51.020;6.764;2023-03-01T11:00:25;9.90;71.90
11838;DHT22;5978;51.020;6.764;2023-03-01T11:05:25;10.40;66.60
11838;DHT22;5978;51.020;6.764;2023-03-01T11:08:01;11.20;65.00
11838;DHT22;5978;51.020;6.764;2023-03-01T11:10:37;11.50;63.60
11838;DHT22;5978;51.020;6.764;2023-03-01T11:13:17;12.10;62.20
11838;DHT22;5978;51.020;6.764;2023-03-01T11:15:57;11.60;59.00
11838;DHT22;5978;51.020;6.764;2023-03-01T11:18:31;11.10;57.60
11838;DHT22;5978;51.020;6.764;2023-03-01T11:20:59;12.40;58.50
11838;DHT22;5978;51.020;6.764;2023-03-01T11:23:29;13.20;56.50
11838;DHT22;5978;51.020;6.764;2023-03-01T11:25:58;13.60;55.60
11838;DHT22;5978;51.020;6.764;2023-03-01T11:28:26;14.30;54.70
11838;DHT22;5978;51.020;6.764;2023-03-01T11:31:01;14.40;53.10
11838;DHT22;5978;51.020;6.764;2023-03-01T11:36:41;14.90;51.50
11838;DHT22;5978;51.020;6.764;2023-03-01T11:39:31;15.50;50.70
11838;DHT22;5978;51.020;6.764;2023-03-01T11:42:06;15.50;49.30
11838;DHT22;5978;51.020;6.764;2023-03-01T11:44:36;16.20;49.60
11838;DHT22;5978;51.020;6.764;2023-03-01T11:47:10;16.30;48.50
11838;DHT22;5978;51.020;6.764;2023-03-01T11:55:30;17.40;46.50
11838;DHT22;5978;51.020;6.764;2023-03-01T11:58:15;18.20;46.70
11838;DHT22;5978;51.020;6.764;2023-03-01T12:04:03;18.40;45.10
11838;DHT22;5978;51.020;6.764;2023-03-01T12:12:28;19.20;42.20
11838;DHT22;5978;51.020;6.764;2023-03-01T12:15:18;19.10;42.10
11838;DHT22;5978;51.020;6.764;2023-03-01T12:26:30;20.00;42.50
11838;DHT22;5978;51.020;6.764;2023-03-01T12:37:42;19.10;41.30
11838;DHT22;5978;51.020;6.764;2023-03-01T12:40:21;18.40;41.30
11838;DHT22;5978;51.020;6.764;2023-03-01T12:42:49;18.20;42.20
11838;DHT22;5978;51.020;6.764;2023-03-01T12:45:40;17.90;41.40
11838;DHT22;5978;51.020;6.764;2023-03-01T12:51:02;18.30;42.30
11838;DHT22;5978;51.020;6.764;2023-03-01T12:53:34;19.40;41.90
11838;DHT22;5978;51.020;6.764;2023-03-01T12:56:05;20.10;41.30
11838;DHT22;5978;51.020;6.764;2023-03-01T13:17:54;20.50;39.60
11838;DHT22;5978;51.020;6.764;2023-03-01T13:33:49;20.70;40.90
11838;DHT22;5978;51.020;6.764;2023-03-01T13:39:02;19.90;42.10
11838;DHT22;5978;51.020;6.764;2023-03-01T13:41:47;20.90;41.90
11838;DHT22;5978;51.020;6.764;2023-03-01T13:46:50;20.20;42.30
11838;DHT22;5978;51.020;6.764;2023-03-01T13:49:18;19.90;40.80
11838;DHT22;5978;51.020;6.764;2023-03-01T13:51:49;20.30;41.30
11838;DHT22;5978;51.020;6.764;2023-03-01T13:54:17;20.60;41.30
11838;DHT22;5978;51.020;6.764;2023-03-01T13:56:46;19.80;41.10
11838;DHT22;5978;51.020;6.764;2023-03-01T13:59:18;19.30;40.90
11838;DHT22;5978;51.020;6.764;2023-03-01T14:01:44;20.20;41.90
11838;DHT22;5978;51.020;6.764;2023-03-01T14:04:28;19.90;40.80
11838;DHT22;5978;51.020;6.764;2023-03-01T14:07:19;18.50;40.50
11838;DHT22;5978;51.020;6.764;2023-03-01T14:09:49;18.30;41.80
11838;DHT22;5978;51.020;6.764;2023-03-01T14:15:35;18.50;42.60
11838;DHT22;5978;51.020;6.764;2023-03-01T14:18:14;19.20;41.90
11838;DHT22;5978;51.020;6.764;2023-03-01T14:20:43;19.40;42.00
11838;DHT22;5978;51.020;6.764;2023-03-01T14:23:19;20.00;41.70
11838;DHT22;5978;51.020;6.764;2023-03-01T14:25:56;19.60;41.60
11838;DHT22;5978;51.020;6.764;2023-03-01T14:28:30;20.00;41.60
11838;DHT22;5978;51.020;6.764;2023-03-01T14:31:00;19.80;41.50
11838;DHT22;5978;51.020;6.764;2023-03-01T14:33:34;18.30;41.60
11838;DHT22;5978;51.020;6.764;2023-03-01T14:38:36;18.00;43.50
11838;DHT22;5978;51.020;6.764;2023-03-01T14:41:14;18.90;43.70
11838;DHT22;5978;51.020;6.764;2023-03-01T14:44:07;19.50;43.30
11838;DHT22;5978;51.020;6.764;2023-03-01T14:46:41;20.00;43.80
11838;DHT22;5978;51.020;6.764;2023-03-01T14:49:15;18.80;42.20
11838;DHT22;5978;51.020;6.764;2023-03-01T14:51:46;18.90;42.70
11838;DHT22;5978;51.020;6.764;2023-03-01T14:56:57;17.90;44.30
11838;DHT22;5978;51.020;6.764;2023-03-01T14:59:23;18.60;44.00
11838;DHT22;5978;51.020;6.764;2023-03-01T15:01:51;19.50;43.80
11838;DHT22;5978;51.020;6.764;2023-03-01T15:04:18;19.50;42.90
11838;DHT22;5978;51.020;6.764;2023-03-01T15:06:45;19.30;43.00
11838;DHT22;5978;51.020;6.764;2023-03-01T15:09:15;17.90;42.60
11838;DHT22;5978;51.020;6.764;2023-03-01T15:11:42;18.10;43.90
11838;DHT22;5978;51.020;6.764;2023-03-01T15:17:33;18.60;43.60
11838;DHT22;5978;51.020;6.764;2023-03-01T15:20:01;18.40;43.00
11838;DHT22;5978;51.020;6.764;2023-03-01T15:22:28;18.00;42.80
11838;DHT22;5978;51.020;6.764;2023-03-01T15:24:54;18.50;43.70
11838;DHT22;5978;51.020;6.764;2023-03-01T15:27:23;18.90;43.10
11838;DHT22;5978;51.020;6.764;2023-03-01T15:29:53;18.80;42.80
11838;DHT22;5978;51.020;6.764;2023-03-01T15:32:32;19.00;42.90
11838;DHT22;5978;51.020;6.764;2023-03-01T15:35:00;18.30;42.40
11838;DHT22;5978;51.020;6.764;2023-03-01T15:37:46;17.50;42.60
11838;DHT22;5978;51.020;6.764;2023-03-01T15:42:49;16.90;43.60
11838;DHT22;5978;51.020;6.764;2023-03-01T15:47:54;17.00;44.00
11838;DHT22;5978;51.020;6.764;2023-03-01T15:52:55;17.50;43.50
11838;DHT22;5978;51.020;6.764;2023-03-01T15:55:25;16.60;43.60
11838;DHT22;5978;51.020;6.764;2023-03-01T15:58:03;14.40;43.50
11838;DHT22;5978;51.020;6.764;2023-03-01T16:00:30;13.10;45.30
11838;DHT22;5978;51.020;6.764;2023-03-01T16:02:56;12.30;46.60
11838;DHT22;5978;51.020;6.764;2023-03-01T16:05:24;11.70;48.10
11838;DHT22;5978;51.020;6.764;2023-03-01T16:07:51;11.20;49.00
11838;DHT22;5978;51.020;6.764;2023-03-01T16:10:17;10.70;50.00
11838;DHT22;5978;51.020;6.764;2023-03-01T16:12:44;10.40;50.80
11838;DHT22;5978;51.020;6.764;2023-03-01T16:15:18;10.10;51.40
11838;DHT22;5978;51.020;6.764;2023-03-01T16:17:44;9.90;52.70
11838;DHT22;5978;51.020;6.764;2023-03-01T16:20:10;9.80;53.10
11838;DHT22;5978;51.020;6.764;2023-03-01T16:22:36;9.60;53.70
11838;DHT22;5978;51.020;6.764;2023-03-01T16:25:02;9.30;53.60
11838;DHT22;5978;51.020;6.764;2023-03-01T16:27:28;9.30;53.90
11838;DHT22;5978;51.020;6.764;2023-03-01T16:29:54;9.10;54.00
11838;DHT22;5978;51.020;6.764;2023-03-01T16:32:20;8.90;54.50
11838;DHT22;5978;51.020;6.764;2023-03-01T16:34:46;8.80;55.00
11838;DHT22;5978;51.020;6.764;2023-03-01T16:37:15;8.80;55.20
11838;DHT22;5978;51.020;6.764;2023-03-01T16:39:41;8.60;55.50
11838;DHT22;5978;51.020;6.764;2023-03-01T16:42:07;8.70;56.50
11838;DHT22;5978;51.020;6.764;2023-03-01T16:44:33;8.70;56.70
11838;DHT22;5978;51.020;6.764;2023-03-01T16:46:59;8.60;56.90
11838;DHT22;5978;51.020;6.764;2023-03-01T16:49:24;8.50;56.60
11838;DHT22;5978;51.020;6.764;2023-03-01T16:51:50;8.40;56.90
11838;DHT22;5978;51.020;6.764;2023-03-01T16:54:18;8.30;57.10
11838;DHT22;5978;51.020;6.764;2023-03-01T16:56:44;8.10;57.50
11838;DHT22;5978;51.020;6.764;2023-03-01T16:59:10;8.00;58.10
11838;DHT22;5978;51.020;6.764;2023-03-01T17:01:35;7.80;58.40
11838;DHT22;5978;51.020;6.764;2023-03-01T17:04:09;7.70;58.70
11838;DHT22;5978;51.020;6.764;2023-03-01T17:06:35;7.60;59.40
11838;DHT22;5978;51.020;6.764;2023-03-01T17:09:01;7.40;59.90
11838;DHT22;5978;51.020;6.764;2023-03-01T17:11:27;7.40;60.70
11838;DHT22;5978;51.020;6.764;2023-03-01T17:13:52;7.30;61.10
11838;DHT22;5978;51.020;6.764;2023-03-01T17:16:19;7.30;61.20
11838;DHT22;5978;51.020;6.764;2023-03-01T17:18:46;7.30;61.80
11838;DHT22;5978;51.020;6.764;2023-03-01T17:21:12;7.20;62.00
11838;DHT22;5978;51.020;6.764;2023-03-01T17:23:40;7.10;63.00
11838;DHT22;5978;51.020;6.764;2023-03-01T17:26:07;7.00;63.50
11838;DHT22;5978;51.020;6.764;2023-03-01T17:28:33;6.90;64.30
11838;DHT22;5978;51.020;6.764;2023-03-01T17:31:01;6.90;65.10
11838;DHT22;5978;51.020;6.764;2023-03-01T17:33:27;6.90;65.70
11838;DHT22;5978;51.020;6.764;2023-03-01T17:35:55;6.80;65.80
11838;DHT22;5978;51.020;6.764;2023-03-01T17:38:21;6.80;65.80
11838;DHT22;5978;51.020;6.764;2023-03-01T17:40:47;6.80;66.80
11838;DHT22;5978;51.020;6.764;2023-03-01T17:43:14;6.70;66.70
11838;DHT22;5978;51.020;6.764;2023-03-01T17:45:40;6.70;67.00
11838;DHT22;5978;51.020;6.764;2023-03-01T17:48:09;6.60;66.80
11838;DHT22;5978;51.020;6.764;2023-03-01T17:50:37;6.60;67.90
11838;DHT22;5978;51.020;6.764;2023-03-01T17:53:03;6.50;68.40
11838;DHT22;5978;51.020;6.764;2023-03-01T17:55:37;6.40;68.80
11838;DHT22;5978;51.020;6.764;2023-03-01T17:58:04;6.40;69.00
11838;DHT22;5978;51.020;6.764;2023-03-01T18:00:30;6.40;71.10
11838;DHT22;5978;51.020;6.764;2023-03-01T18:02:55;6.30;70.30